sensor_id;sensor_type;location;lat;lon;timestamp;pressure;altitude;pressure_sealevel;temperature
74915;BMP280;63475;45.140;-75.616;2022-12-17T00:00:07;99754.06;;;0.96
74915;BMP280;63475;45.140;-75.616;2022-12-17T00:01:26;99742.03;;;0.92
74915;BMP280;63475;45.140;-75.616;2022-12-17T00:02:46;99777.75;;;1.14
74915;BMP280;63475;45.140;-75.616;2022-12-17T00:04:05;99769.09;;;1.07
74915;BMP280;63475;45.140;-75.616;2022-12-17T00:05:25;99760.88;;;1.04
74915;BMP280;63475;45.140;-75.616;2022-12-17T00:06:44;99775.16;;;1.14
74915;BMP280;63475;45.140;-75.616;2022-12-17T00:08:08;99767.31;;;1.14
74915;BMP280;63475;45.140;-75.616;2022-12-17T00:09:27;99738.34;;;0.93
74915;BMP280;63475;45.140;-75.616;2022-12-17T00:10:47;99763.25;;;1.13
74915;BMP280;63475;45.140;-75.616;2022-12-17T00:12:06;99764.34;;;1.12
74915;BMP280;63475;45.140;-75.616;2022-12-17T00:13:26;99726.41;;;0.92
74915;BMP280;63475;45.140;-75.616;2022-12-17T00:14:45;99768.47;;;1.13
74915;BMP280;63475;45.140;-75.616;2022-12-17T00:16:05;99756.53;;;1.12
74915;BMP280;63475;45.140;-75.616;2022-12-17T00:17:24;99756.16;;;1.14
74915;BMP280;63475;45.140;-75.616;2022-12-17T00:18:44;99734.00;;;1.00
74915;BMP280;63475;45.140;-75.616;2022-12-17T00:20:14;99758.06;;;1.17
74915;BMP280;63475;45.140;-75.616;2022-12-17T00:21:33;99753.94;;;1.16
74915;BMP280;63475;45.140;-75.616;2022-12-17T00:23:00;99735.56;;;1.05
74915;BMP280;63475;45.140;-75.616;2022-12-17T00:24:19;99752.44;;;1.15
74915;BMP280;63475;45.140;-75.616;2022-12-17T00:25:39;99743.84;;;1.11
74915;BMP280;63475;45.140;-75.616;2022-12-17T00:26:58;99746.47;;;1.14
74915;BMP280;63475;45.140;-75.616;2022-12-17T00:28:18;99741.63;;;1.13
74915;BMP280;63475;45.140;-75.616;2022-12-17T00:29:37;99745.00;;;1.13
74915;BMP280;63475;45.140;-75.616;2022-12-17T00:30:57;99737.19;;;1.17
74915;BMP280;63475;45.140;-75.616;2022-12-17T00:32:17;99737.94;;;1.17
74915;BMP280;63475;45.140;-75.616;2022-12-17T00:33:36;99738.63;;;1.14
74915;BMP280;63475;45.140;-75.616;2022-12-17T00:34:56;99730.81;;;1.14
74915;BMP280;63475;45.140;-75.616;2022-12-17T00:36:15;99736.44;;;1.16
74915;BMP280;63475;45.140;-75.616;2022-12-17T00:37:35;99736.44;;;1.16
74915;BMP280;63475;45.140;-75.616;2022-12-17T00:38:54;99684.59;;;0.85
74915;BMP280;63475;45.140;-75.616;2022-12-17T00:40:27;99733.44;;;1.14
74915;BMP280;63475;45.140;-75.616;2022-12-17T00:41:47;99697.81;;;0.95
74915;BMP280;63475;45.140;-75.616;2022-12-17T00:43:11;99731.56;;;1.11
74915;BMP280;63475;45.140;-75.616;2022-12-17T00:44:31;99720.78;;;1.16
74915;BMP280;63475;45.140;-75.616;2022-12-17T00:45:50;99724.94;;;1.21
74915;BMP280;63475;45.140;-75.616;2022-12-17T00:47:10;99721.53;;;1.17
74915;BMP280;63475;45.140;-75.616;2022-12-17T00:48:30;99729.00;;;1.18
74915;BMP280;63475;45.140;-75.616;2022-12-17T00:49:49;99714.50;;;1.21
74915;BMP280;63475;45.140;-75.616;2022-12-17T00:51:09;99719.34;;;1.19
74915;BMP280;63475;45.140;-75.616;2022-12-17T00:52:28;99717.06;;;1.17
74915;BMP280;63475;45.140;-75.616;2022-12-17T00:53:48;99711.88;;;1.17
74915;BMP280;63475;45.140;-75.616;2022-12-17T00:55:07;99722.28;;;1.17
74915;BMP280;63475;45.140;-75.616;2022-12-17T00:56:28;99717.06;;;1.17
74915;BMP280;63475;45.140;-75.616;2022-12-17T00:57:55;99717.88;;;1.21
74915;BMP280;63475;45.140;-75.616;2022-12-17T00:59:14;99706.69;;;1.21
74915;BMP280;63475;45.140;-75.616;2022-12-17T01:00:34;99694.28;;;1.11
74915;BMP280;63475;45.140;-75.616;2022-12-17T01:01:53;99693.97;;;1.16
74915;BMP280;63475;45.140;-75.616;2022-12-17T01:03:13;99696.97;;;1.18
74915;BMP280;63475;45.140;-75.616;2022-12-17T01:04:32;99703.34;;;1.20
74915;BMP280;63475;45.140;-75.616;2022-12-17T01:05:51;99692.50;;;1.18
74915;BMP280;63475;45.140;-75.616;2022-12-17T01:07:11;99695.47;;;1.17
74915;BMP280;63475;45.140;-75.616;2022-12-17T01:08:30;99692.50;;;1.18
74915;BMP280;63475;45.140;-75.616;2022-12-17T01:09:50;99691.75;;;1.18
74915;BMP280;63475;45.140;-75.616;2022-12-17T01:11:09;99692.50;;;1.18
74915;BMP280;63475;45.140;-75.616;2022-12-17T01:12:29;99665.13;;;1.01
74915;BMP280;63475;45.140;-75.616;2022-12-17T01:13:48;99663.25;;;1.02
74915;BMP280;63475;45.140;-75.616;2022-12-17T01:15:08;99687.63;;;1.17
74915;BMP280;63475;45.140;-75.616;2022-12-17T01:16:27;99678.66;;;1.14
74915;BMP280;63475;45.140;-75.616;2022-12-17T01:17:47;99681.66;;;1.16
74915;BMP280;63475;45.140;-75.616;2022-12-17T01:19:06;99682.41;;;1.17
74915;BMP280;63475;45.140;-75.616;2022-12-17T01:20:25;99685.78;;;1.17
74915;BMP280;63475;45.140;-75.616;2022-12-17T01:21:45;99675.34;;;1.17
74915;BMP280;63475;45.140;-75.616;2022-12-17T01:23:07;99619.38;;;0.78
74915;BMP280;63475;45.140;-75.616;2022-12-17T01:24:26;99675.41;;;1.21
74915;BMP280;63475;45.140;-75.616;2022-12-17T01:25:56;99665.63;;;1.14
74915;BMP280;63475;45.140;-75.616;2022-12-17T01:27:15;99679.13;;;1.20
74915;BMP280;63475;45.140;-75.616;2022-12-17T01:28:35;99666.44;;;1.18
74915;BMP280;63475;45.140;-75.616;2022-12-17T01:29:54;99683.56;;;1.19
74915;BMP280;63475;45.140;-75.616;2022-12-17T01:31:14;99675.75;;;1.19
74915;BMP280;63475;45.140;-75.616;2022-12-17T01:32:33;99628.22;;;0.99
74915;BMP280;63475;45.140;-75.616;2022-12-17T01:33:53;99652.53;;;1.07
74915;BMP280;63475;45.140;-75.616;2022-12-17T01:35:12;99665.75;;;1.25
74915;BMP280;63475;45.140;-75.616;2022-12-17T01:36:32;99657.59;;;1.26
74915;BMP280;63475;45.140;-75.616;2022-12-17T01:37:51;99661.28;;;1.25
74915;BMP280;63475;45.140;-75.616;2022-12-17T01:39:10;99663.16;;;1.25
74915;BMP280;63475;45.140;-75.616;2022-12-17T01:40:30;99619.25;;;0.97
74915;BMP280;63475;45.140;-75.616;2022-12-17T01:41:49;99633.13;;;1.04
74915;BMP280;63475;45.140;-75.616;2022-12-17T01:43:11;99665.00;;;1.24
74915;BMP280;63475;45.140;-75.616;2022-12-17T01:44:51;99665.00;;;1.24
74915;BMP280;63475;45.140;-75.616;2022-12-17T01:46:11;99658.28;;;1.23
74915;BMP280;63475;45.140;-75.616;2022-12-17T01:47:49;99656.78;;;1.22
74915;BMP280;63475;45.140;-75.616;2022-12-17T01:49:11;99650.81;;;1.22
74915;BMP280;63475;45.140;-75.616;2022-12-17T01:50:34;99650.06;;;1.21
74915;BMP280;63475;45.140;-75.616;2022-12-17T01:51:55;99653.78;;;1.20
74915;BMP280;63475;45.140;-75.616;2022-12-17T01:53:17;99643.34;;;1.20
74915;BMP280;63475;45.140;-75.616;2022-12-17T01:54:37;99623.09;;;1.07
74915;BMP280;63475;45.140;-75.616;2022-12-17T01:55:57;99639.19;;;1.16
74915;BMP280;63475;45.140;-75.616;2022-12-17T01:57:17;99647.09;;;1.23
74915;BMP280;63475;45.140;-75.616;2022-12-17T01:58:37;99629.09;;;1.11
74915;BMP280;63475;45.140;-75.616;2022-12-17T02:00:09;99644.50;;;1.23
74915;BMP280;63475;45.140;-75.616;2022-12-17T02:01:28;99617.47;;;1.04
74915;BMP280;63475;45.140;-75.616;2022-12-17T02:02:48;99651.97;;;1.24
74915;BMP280;63475;45.140;-75.616;2022-12-17T02:04:08;99639.69;;;1.25
74915;BMP280;63475;45.140;-75.616;2022-12-17T02:05:54;99635.97;;;1.26
74915;BMP280;63475;45.140;-75.616;2022-12-17T02:07:28;99635.91;;;1.22
74915;BMP280;63475;45.140;-75.616;2022-12-17T02:09:17;99628.91;;;1.26
74915;BMP280;63475;45.140;-75.616;2022-12-17T02:16:12;99622.53;;;1.24
74915;BMP280;63475;45.140;-75.616;2022-12-17T02:17:30;99621.03;;;1.23
74915;BMP280;63475;45.140;-75.616;2022-12-17T02:18:57;99629.25;;;1.25
74915;BMP280;63475;45.140;-75.616;2022-12-17T02:20:24;99627.00;;;1.23
74915;BMP280;63475;45.140;-75.616;2022-12-17T02:21:48;99621.38;;;1.21
74915;BMP280;63475;45.140;-75.616;2022-12-17T02:24:54;99604.97;;;1.21
74915;BMP280;63475;45.140;-75.616;2022-12-17T02:27:51;99621.78;;;1.23
74915;BMP280;63475;45.140;-75.616;2022-12-17T02:29:10;99618.41;;;1.23
74915;BMP280;63475;45.140;-75.616;2022-12-17T02:30:30;99609.44;;;1.20
74915;BMP280;63475;45.140;-75.616;2022-12-17T02:31:50;99621.06;;;1.26
74915;BMP280;63475;45.140;-75.616;2022-12-17T02:33:11;99619.56;;;1.25
74915;BMP280;63475;45.140;-75.616;2022-12-17T02:34:30;99625.13;;;1.24
74915;BMP280;63475;45.140;-75.616;2022-12-17T02:35:58;99616.56;;;1.23
74915;BMP280;63475;45.140;-75.616;2022-12-17T02:37:18;99623.34;;;1.28
74915;BMP280;63475;45.140;-75.616;2022-12-17T02:38:37;99618.47;;;1.26
74915;BMP280;63475;45.140;-75.616;2022-12-17T02:39:57;99618.81;;;1.25
74915;BMP280;63475;45.140;-75.616;2022-12-17T02:41:26;99618.06;;;1.24
74915;BMP280;63475;45.140;-75.616;2022-12-17T02:42:47;99617.31;;;1.24
74915;BMP280;63475;45.140;-75.616;2022-12-17T02:44:08;99621.41;;;1.25
74915;BMP280;63475;45.140;-75.616;2022-12-17T02:45:28;99612.44;;;1.22
74915;BMP280;63475;45.140;-75.616;2022-12-17T02:46:49;99619.56;;;1.25
74915;BMP280;63475;45.140;-75.616;2022-12-17T02:48:27;99607.59;;;1.21
74915;BMP280;63475;45.140;-75.616;2022-12-17T02:49:46;99601.56;;;1.13
74915;BMP280;63475;45.140;-75.616;2022-12-17T02:51:05;99613.25;;;1.26
74915;BMP280;63475;45.140;-75.616;2022-12-17T02:52:25;99597.91;;;1.21
74915;BMP280;63475;45.140;-75.616;2022-12-17T02:53:50;99593.75;;;1.13
74915;BMP280;63475;45.140;-75.616;2022-12-17T02:55:11;99596.34;;;1.13
74915;BMP280;63475;45.140;-75.616;2022-12-17T02:56:30;99607.69;;;1.28
74915;BMP280;63475;45.140;-75.616;2022-12-17T02:57:50;99612.13;;;1.27
74915;BMP280;63475;45.140;-75.616;2022-12-17T02:59:09;99609.88;;;1.26
74915;BMP280;63475;45.140;-75.616;2022-12-17T03:00:29;99609.19;;;1.29
74915;BMP280;63475;45.140;-75.616;2022-12-17T03:01:48;99618.13;;;1.28
74915;BMP280;63475;45.140;-75.616;2022-12-17T03:03:08;99610.63;;;1.26
74915;BMP280;63475;45.140;-75.616;2022-12-17T03:04:27;99617.34;;;1.27
74915;BMP280;63475;45.140;-75.616;2022-12-17T03:05:47;99604.22;;;1.20
74915;BMP280;63475;45.140;-75.616;2022-12-17T03:07:06;99584.28;;;1.01
74915;BMP280;63475;45.140;-75.616;2022-12-17T03:08:25;99583.22;;;1.06
74915;BMP280;63475;45.140;-75.616;2022-12-17T03:09:45;99618.88;;;1.28
74915;BMP280;63475;45.140;-75.616;2022-12-17T03:11:04;99609.88;;;1.26
74915;BMP280;63475;45.140;-75.616;2022-12-17T03:12:24;99610.31;;;1.28
74915;BMP280;63475;45.140;-75.616;2022-12-17T03:13:43;99597.88;;;1.18
74915;BMP280;63475;45.140;-75.616;2022-12-17T03:15:03;99605.84;;;1.28
74915;BMP280;63475;45.140;-75.616;2022-12-17T03:16:22;99604.00;;;1.29
74915;BMP280;63475;45.140;-75.616;2022-12-17T03:17:41;99575.75;;;1.04
74915;BMP280;63475;45.140;-75.616;2022-12-17T03:19:02;99610.31;;;1.28
74915;BMP280;63475;45.140;-75.616;2022-12-17T03:20:21;99605.50;;;1.30
74915;BMP280;63475;45.140;-75.616;2022-12-17T03:21:41;99603.28;;;1.32
74915;BMP280;63475;45.140;-75.616;2022-12-17T03:23:08;99612.22;;;1.31
74915;BMP280;63475;45.140;-75.616;2022-12-17T03:24:27;99607.34;;;1.29
74915;BMP280;63475;45.140;-75.616;2022-12-17T03:25:47;99604.75;;;1.29
74915;BMP280;63475;45.140;-75.616;2022-12-17T03:27:06;99604.75;;;1.29
74915;BMP280;63475;45.140;-75.616;2022-12-17T03:28:26;99537.53;;;0.86
74915;BMP280;63475;45.140;-75.616;2022-12-17T03:29:45;99603.25;;;1.28
74915;BMP280;63475;45.140;-75.616;2022-12-17T03:31:18;99598.03;;;1.28
74915;BMP280;63475;45.140;-75.616;2022-12-17T03:32:37;99556.72;;;1.00
74915;BMP280;63475;45.140;-75.616;2022-12-17T03:33:56;99596.91;;;1.29
74915;BMP280;63475;45.140;-75.616;2022-12-17T03:35:16;99593.56;;;1.29
74915;BMP280;63475;45.140;-75.616;2022-12-17T03:36:35;99589.09;;;1.29
74915;BMP280;63475;45.140;-75.616;2022-12-17T03:37:55;99546.25;;;0.97
74915;BMP280;63475;45.140;-75.616;2022-12-17T03:39:14;99591.69;;;1.29
74915;BMP280;63475;45.140;-75.616;2022-12-17T03:40:34;99587.97;;;1.30
74915;BMP280;63475;45.140;-75.616;2022-12-17T03:41:53;99586.47;;;1.29
74915;BMP280;63475;45.140;-75.616;2022-12-17T03:43:13;99583.13;;;1.29
74915;BMP280;63475;45.140;-75.616;2022-12-17T03:44:32;99559.81;;;1.10
74915;BMP280;63475;45.140;-75.616;2022-12-17T03:45:53;99573.25;;;1.15
74915;BMP280;63475;45.140;-75.616;2022-12-17T03:47:12;99582.69;;;1.27
74915;BMP280;63475;45.140;-75.616;2022-12-17T03:48:32;99571.88;;;1.25
74915;BMP280;63475;45.140;-75.616;2022-12-17T03:49:51;99583.88;;;1.29
74915;BMP280;63475;45.140;-75.616;2022-12-17T03:51:10;99583.50;;;1.31
74915;BMP280;63475;45.140;-75.616;2022-12-17T03:52:30;99576.03;;;1.29
74915;BMP280;63475;45.140;-75.616;2022-12-17T03:53:49;99579.41;;;1.30
74915;BMP280;63475;45.140;-75.616;2022-12-17T03:55:09;99576.81;;;1.30
74915;BMP280;63475;45.140;-75.616;2022-12-17T03:56:28;99543.81;;;1.11
74915;BMP280;63475;45.140;-75.616;2022-12-17T03:57:48;99574.94;;;1.30
74915;BMP280;63475;45.140;-75.616;2022-12-17T03:59:08;99566.38;;;1.30
74915;BMP280;63475;45.140;-75.616;2022-12-17T04:00:27;99574.94;;;1.30
74915;BMP280;63475;45.140;-75.616;2022-12-17T04:01:47;99571.59;;;1.30
74915;BMP280;63475;45.140;-75.616;2022-12-17T04:03:06;99543.09;;;1.18
74915;BMP280;63475;45.140;-75.616;2022-12-17T04:04:26;99563.75;;;1.30
74915;BMP280;63475;45.140;-75.616;2022-12-17T04:05:45;99559.28;;;1.30
74915;BMP280;63475;45.140;-75.616;2022-12-17T04:07:04;99561.16;;;1.30
74915;BMP280;63475;45.140;-75.616;2022-12-17T04:08:24;99560.44;;;1.33
74915;BMP280;63475;45.140;-75.616;2022-12-17T04:09:43;99558.19;;;1.31
74915;BMP280;63475;45.140;-75.616;2022-12-17T04:11:03;99518.06;;;1.06
74915;BMP280;63475;45.140;-75.616;2022-12-17T04:12:22;99556.28;;;1.28
74915;BMP280;63475;45.140;-75.616;2022-12-17T04:13:41;99545.78;;;1.25
74915;BMP280;63475;45.140;-75.616;2022-12-17T04:15:01;99552.56;;;1.29
74915;BMP280;63475;45.140;-75.616;2022-12-17T04:16:21;99552.97;;;1.31
74915;BMP280;63475;45.140;-75.616;2022-12-17T04:17:40;99548.91;;;1.34
74915;BMP280;63475;45.140;-75.616;2022-12-17T04:18:59;99550.34;;;1.31
74915;BMP280;63475;45.140;-75.616;2022-12-17T04:20:19;99556.72;;;1.34
74915;BMP280;63475;45.140;-75.616;2022-12-17T04:21:39;99544.69;;;1.26
74915;BMP280;63475;45.140;-75.616;2022-12-17T04:22:58;99516.56;;;1.05
74915;BMP280;63475;45.140;-75.616;2022-12-17T04:24:17;99542.13;;;1.29
74915;BMP280;63475;45.140;-75.616;2022-12-17T04:25:37;99536.47;;;1.24
74915;BMP280;63475;45.140;-75.616;2022-12-17T04:26:56;99552.97;;;1.31
74915;BMP280;63475;45.140;-75.616;2022-12-17T04:28:16;99505.41;;;1.08
74915;BMP280;63475;45.140;-75.616;2022-12-17T04:29:35;99545.88;;;1.32
74915;BMP280;63475;45.140;-75.616;2022-12-17T04:30:55;99542.19;;;1.33
74915;BMP280;63475;45.140;-75.616;2022-12-17T04:32:14;99550.00;;;1.33
74915;BMP280;63475;45.140;-75.616;2022-12-17T04:33:34;99544.78;;;1.33
74915;BMP280;63475;45.140;-75.616;2022-12-17T04:34:53;99542.19;;;1.33
74915;BMP280;63475;45.140;-75.616;2022-12-17T04:36:13;99533.84;;;1.24
74915;BMP280;63475;45.140;-75.616;2022-12-17T04:37:32;99509.16;;;1.14
74915;BMP280;63475;45.140;-75.616;2022-12-17T04:38:51;99543.69;;;1.34
74915;BMP280;63475;45.140;-75.616;2022-12-17T04:40:11;99542.94;;;1.33
74915;BMP280;63475;45.140;-75.616;2022-12-17T04:41:30;99536.97;;;1.33
74915;BMP280;63475;45.140;-75.616;2022-12-17T04:42:50;99535.47;;;1.32
74915;BMP280;63475;45.140;-75.616;2022-12-17T04:44:09;99530.25;;;1.32
74915;BMP280;63475;45.140;-75.616;2022-12-17T04:45:29;99525.31;;;1.27
74915;BMP280;63475;45.140;-75.616;2022-12-17T04:46:48;99522.72;;;1.27
74915;BMP280;63475;45.140;-75.616;2022-12-17T04:48:08;99524.53;;;1.23
74915;BMP280;63475;45.140;-75.616;2022-12-17T04:49:27;99527.25;;;1.30
74915;BMP280;63475;45.140;-75.616;2022-12-17T04:50:47;99505.47;;;1.15
74915;BMP280;63475;45.140;-75.616;2022-12-17T04:52:06;99529.09;;;1.29
74915;BMP280;63475;45.140;-75.616;2022-12-17T04:53:25;99519.81;;;1.32
74915;BMP280;63475;45.140;-75.616;2022-12-17T04:54:45;99521.31;;;1.33
74915;BMP280;63475;45.140;-75.616;2022-12-17T04:56:04;99507.41;;;1.25
74915;BMP280;63475;45.140;-75.616;2022-12-17T04:57:24;99504.75;;;1.18
74915;BMP280;63475;45.140;-75.616;2022-12-17T04:58:45;99513.09;;;1.31
74915;BMP280;63475;45.140;-75.616;2022-12-17T05:00:05;99509.34;;;1.28
74915;BMP280;63475;45.140;-75.616;2022-12-17T05:01:25;99512.34;;;1.30
74915;BMP280;63475;45.140;-75.616;2022-12-17T05:03:14;99519.81;;;1.32
74915;BMP280;63475;45.140;-75.616;2022-12-17T05:04:34;99510.84;;;1.29
74915;BMP280;63475;45.140;-75.616;2022-12-17T05:05:54;99512.34;;;1.30
74915;BMP280;63475;45.140;-75.616;2022-12-17T05:07:13;99494.69;;;1.20
74915;BMP280;63475;45.140;-75.616;2022-12-17T05:08:32;99509.72;;;1.30
74915;BMP280;63475;45.140;-75.616;2022-12-17T05:09:52;99482.38;;;1.17
74915;BMP280;63475;45.140;-75.616;2022-12-17T05:11:11;99503.38;;;1.28
74915;BMP280;63475;45.140;-75.616;2022-12-17T05:12:31;99506.75;;;1.32
74915;BMP280;63475;45.140;-75.616;2022-12-17T05:13:50;99504.91;;;1.32
74915;BMP280;63475;45.140;-75.616;2022-12-17T05:15:10;99489.50;;;1.20
74915;BMP280;63475;45.140;-75.616;2022-12-17T05:16:29;99490.25;;;1.21
74915;BMP280;63475;45.140;-75.616;2022-12-17T05:17:49;99506.41;;;1.33
74915;BMP280;63475;45.140;-75.616;2022-12-17T05:19:08;99462.13;;;1.00
74915;BMP280;63475;45.140;-75.616;2022-12-17T05:20:28;99480.56;;;1.21
74915;BMP280;63475;45.140;-75.616;2022-12-17T05:21:47;99500.41;;;1.29
74915;BMP280;63475;45.140;-75.616;2022-12-17T05:23:07;99491.09;;;1.28
74915;BMP280;63475;45.140;-75.616;2022-12-17T05:24:27;99492.97;;;1.31
74915;BMP280;63475;45.140;-75.616;2022-12-17T05:25:46;99498.19;;;1.31
74915;BMP280;63475;45.140;-75.616;2022-12-17T05:27:06;99466.34;;;1.15
74915;BMP280;63475;45.140;-75.616;2022-12-17T05:28:25;99495.59;;;1.31
74915;BMP280;63475;45.140;-75.616;2022-12-17T05:29:45;99496.34;;;1.32
74915;BMP280;63475;45.140;-75.616;2022-12-17T05:31:04;99498.19;;;1.31
74915;BMP280;63475;45.140;-75.616;2022-12-17T05:32:23;99496.69;;;1.30
74915;BMP280;63475;45.140;-75.616;2022-12-17T05:33:43;99478.66;;;1.18
74915;BMP280;63475;45.140;-75.616;2022-12-17T05:35:03;99500.41;;;1.29
74915;BMP280;63475;45.140;-75.616;2022-12-17T05:36:22;99489.97;;;1.29
74915;BMP280;63475;45.140;-75.616;2022-12-17T05:37:41;99484.69;;;1.26
74915;BMP280;63475;45.140;-75.616;2022-12-17T05:39:01;99494.47;;;1.32
74915;BMP280;63475;45.140;-75.616;2022-12-17T05:40:20;99498.19;;;1.31
74915;BMP280;63475;45.140;-75.616;2022-12-17T05:41:40;99496.34;;;1.32
74915;BMP280;63475;45.140;-75.616;2022-12-17T05:43:04;99499.69;;;1.32
74915;BMP280;63475;45.140;-75.616;2022-12-17T05:44:24;99497.84;;;1.33
74915;BMP280;63475;45.140;-75.616;2022-12-17T05:45:44;99498.94;;;1.32
74915;BMP280;63475;45.140;-75.616;2022-12-17T05:47:03;99498.19;;;1.31
74915;BMP280;63475;45.140;-75.616;2022-12-17T05:48:22;99493.34;;;1.30
74915;BMP280;63475;45.140;-75.616;2022-12-17T05:49:45;99473.44;;;1.18
74915;BMP280;63475;45.140;-75.616;2022-12-17T05:51:04;99496.69;;;1.30
74915;BMP280;63475;45.140;-75.616;2022-12-17T05:52:23;99491.47;;;1.30
74915;BMP280;63475;45.140;-75.616;2022-12-17T05:53:43;99492.94;;;1.28
74915;BMP280;63475;45.140;-75.616;2022-12-17T05:55:02;99492.53;;;1.26
74915;BMP280;63475;45.140;-75.616;2022-12-17T05:56:21;99489.16;;;1.25
74915;BMP280;63475;45.140;-75.616;2022-12-17T05:57:41;99472.66;;;1.14
74915;BMP280;63475;45.140;-75.616;2022-12-17T05:59:00;99494.03;;;1.27
74915;BMP280;63475;45.140;-75.616;2022-12-17T06:00:20;99490.66;;;1.26
74915;BMP280;63475;45.140;-75.616;2022-12-17T06:01:39;99485.88;;;1.28
74915;BMP280;63475;45.140;-75.616;2022-12-17T06:03:00;99457.72;;;1.08
74915;BMP280;63475;45.140;-75.616;2022-12-17T06:04:25;99489.91;;;1.26
74915;BMP280;63475;45.140;-75.616;2022-12-17T06:05:44;99486.94;;;1.27
74915;BMP280;63475;45.140;-75.616;2022-12-17T06:07:03;99487.31;;;1.26
74915;BMP280;63475;45.140;-75.616;2022-12-17T06:08:23;99477.94;;;1.21
74915;BMP280;63475;45.140;-75.616;2022-12-17T06:09:42;99486.16;;;1.23
74915;BMP280;63475;45.140;-75.616;2022-12-17T06:11:01;99483.19;;;1.25
74915;BMP280;63475;45.140;-75.616;2022-12-17T06:12:21;99482.44;;;1.24
74915;BMP280;63475;45.140;-75.616;2022-12-17T06:13:40;99482.44;;;1.24
74915;BMP280;63475;45.140;-75.616;2022-12-17T06:15:00;99483.19;;;1.25
74915;BMP280;63475;45.140;-75.616;2022-12-17T06:16:20;99485.06;;;1.24
74915;BMP280;63475;45.140;-75.616;2022-12-17T06:17:39;99483.56;;;1.23
74915;BMP280;63475;45.140;-75.616;2022-12-17T06:18:59;99479.09;;;1.24
74915;BMP280;63475;45.140;-75.616;2022-12-17T06:20:18;99478.34;;;1.23
74915;BMP280;63475;45.140;-75.616;2022-12-17T06:21:38;99477.94;;;1.21
74915;BMP280;63475;45.140;-75.616;2022-12-17T06:23:05;99484.69;;;1.26
74915;BMP280;63475;45.140;-75.616;2022-12-17T06:24:24;99476.88;;;1.26
74915;BMP280;63475;45.140;-75.616;2022-12-17T06:25:45;99481.34;;;1.25
74915;BMP280;63475;45.140;-75.616;2022-12-17T06:27:05;99464.84;;;1.14
74915;BMP280;63475;45.140;-75.616;2022-12-17T06:28:24;99480.97;;;1.27
74915;BMP280;63475;45.140;-75.616;2022-12-17T06:29:43;99471.94;;;1.17
74915;BMP280;63475;45.140;-75.616;2022-12-17T06:31:03;99477.22;;;1.24
74915;BMP280;63475;45.140;-75.616;2022-12-17T06:32:22;99481.34;;;1.25
74915;BMP280;63475;45.140;-75.616;2022-12-17T06:33:41;99479.09;;;1.24
74915;BMP280;63475;45.140;-75.616;2022-12-17T06:35:01;99483.19;;;1.25
74915;BMP280;63475;45.140;-75.616;2022-12-17T06:36:20;99476.47;;;1.24
74915;BMP280;63475;45.140;-75.616;2022-12-17T06:37:40;99477.28;;;1.28
74915;BMP280;63475;45.140;-75.616;2022-12-17T06:38:59;99479.91;;;1.28
74915;BMP280;63475;45.140;-75.616;2022-12-17T06:40:19;99466.09;;;1.27
74915;BMP280;63475;45.140;-75.616;2022-12-17T06:41:38;99460.75;;;1.13
74915;BMP280;63475;45.140;-75.616;2022-12-17T06:42:58;99476.88;;;1.26
74915;BMP280;63475;45.140;-75.616;2022-12-17T06:44:17;99437.56;;;1.01
74915;BMP280;63475;45.140;-75.616;2022-12-17T06:45:36;99472.00;;;1.24
74915;BMP280;63475;45.140;-75.616;2022-12-17T06:46:56;99467.91;;;1.23
74915;BMP280;63475;45.140;-75.616;2022-12-17T06:48:15;99474.22;;;1.22
74915;BMP280;63475;45.140;-75.616;2022-12-17T06:49:34;99478.34;;;1.23
74915;BMP280;63475;45.140;-75.616;2022-12-17T06:50:54;99474.63;;;1.24
74915;BMP280;63475;45.140;-75.616;2022-12-17T06:52:14;99479.84;;;1.24
74915;BMP280;63475;45.140;-75.616;2022-12-17T06:53:33;99480.19;;;1.23
74915;BMP280;63475;45.140;-75.616;2022-12-17T06:54:53;99451.75;;;1.07
74915;BMP280;63475;45.140;-75.616;2022-12-17T06:56:12;99486.16;;;1.23
74915;BMP280;63475;45.140;-75.616;2022-12-17T06:57:32;99485.41;;;1.23
74915;BMP280;63475;45.140;-75.616;2022-12-17T06:58:51;99484.31;;;1.24
74915;BMP280;63475;45.140;-75.616;2022-12-17T07:00:11;99460.66;;;1.02
74915;BMP280;63475;45.140;-75.616;2022-12-17T07:01:30;99482.44;;;1.24
74915;BMP280;63475;45.140;-75.616;2022-12-17T07:02:54;99480.94;;;1.23
74915;BMP280;63475;45.140;-75.616;2022-12-17T07:04:14;99482.78;;;1.19
74915;BMP280;63475;45.140;-75.616;2022-12-17T07:05:33;99440.38;;;0.89
74915;BMP280;63475;45.140;-75.616;2022-12-17T07:06:52;99490.63;;;1.23
74915;BMP280;63475;45.140;-75.616;2022-12-17T07:08:12;99483.53;;;1.20
74915;BMP280;63475;45.140;-75.616;2022-12-17T07:09:31;99489.13;;;1.22
74915;BMP280;63475;45.140;-75.616;2022-12-17T07:10:50;99498.81;;;1.21
74915;BMP280;63475;45.140;-75.616;2022-12-17T07:12:10;99487.63;;;1.21
74915;BMP280;63475;45.140;-75.616;2022-12-17T07:13:29;99452.38;;;0.93
74915;BMP280;63475;45.140;-75.616;2022-12-17T07:14:48;99482.41;;;1.21
74915;BMP280;63475;45.140;-75.616;2022-12-17T07:16:08;99489.88;;;1.22
74915;BMP280;63475;45.140;-75.616;2022-12-17T07:17:38;99487.28;;;1.22
74915;BMP280;63475;45.140;-75.616;2022-12-17T07:18:57;99459.59;;;1.07
74915;BMP280;63475;45.140;-75.616;2022-12-17T07:20:17;99486.53;;;1.22
74915;BMP280;63475;45.140;-75.616;2022-12-17T07:21:36;99477.16;;;1.17
74915;BMP280;63475;45.140;-75.616;2022-12-17T07:22:55;99485.78;;;1.21
74915;BMP280;63475;45.140;-75.616;2022-12-17T07:24:15;99483.91;;;1.22
74915;BMP280;63475;45.140;-75.616;2022-12-17T07:25:34;99485.78;;;1.21
74915;BMP280;63475;45.140;-75.616;2022-12-17T07:26:54;99472.66;;;1.11
74915;BMP280;63475;45.140;-75.616;2022-12-17T07:28:13;99482.41;;;1.21
74915;BMP280;63475;45.140;-75.616;2022-12-17T07:29:33;99481.66;;;1.20
74915;BMP280;63475;45.140;-75.616;2022-12-17T07:30:55;99483.88;;;1.18
74915;BMP280;63475;45.140;-75.616;2022-12-17T07:32:14;99480.56;;;1.21
74915;BMP280;63475;45.140;-75.616;2022-12-17T07:33:33;99477.19;;;1.21
74915;BMP280;63475;45.140;-75.616;2022-12-17T07:34:55;99477.94;;;1.21
74915;BMP280;63475;45.140;-75.616;2022-12-17T07:36:15;99469.31;;;1.10
74915;BMP280;63475;45.140;-75.616;2022-12-17T07:37:34;99479.06;;;1.20
74915;BMP280;63475;45.140;-75.616;2022-12-17T07:38:54;99484.28;;;1.20
74915;BMP280;63475;45.140;-75.616;2022-12-17T07:40:13;99488.75;;;1.20
74915;BMP280;63475;45.140;-75.616;2022-12-17T07:41:33;99485.38;;;1.19
74915;BMP280;63475;45.140;-75.616;2022-12-17T07:42:52;99485.34;;;1.16
74915;BMP280;63475;45.140;-75.616;2022-12-17T07:44:12;99493.19;;;1.19
74915;BMP280;63475;45.140;-75.616;2022-12-17T07:45:31;99494.31;;;1.18